Time;durP1;ratioP1;P1;durP2;ratioP2;P2;SDS_P1;SDS_P2;PMS_P1;PMS_P2;Temp;Humidity;BMP_temperature;BMP_pressure;BME280_temperature;BME280_humidity;BME280_pressure;Samples;Min_cycle;Max_cycle;Signal;HPM_P1;HPM_P2
2022/11/16 00:01:41;;;;;;;78.30;42.10;;;;;;;7.31;99.79;97643.73;102921;1312;22722;-72
2022/11/16 00:04:10;;;;;;;78.30;42.50;;;;;;;7.31;99.70;97643.90;102829;1298;25444;-72
2022/11/16 00:06:40;;;;;;;77.70;45.80;;;;;;;7.30;99.61;97645.67;102810;1305;138736;-72
2022/11/16 00:09:22;;;;;;;75.40;44.30;;;;;;;7.28;99.39;97649.14;102948;1312;23556;-72
2022/11/16 00:11:55;;;;;;;71.40;42.60;;;;;;;7.25;99.40;97645.46;102892;1304;140129;-73
2022/11/16 00:14:28;;;;;;;82.50;48.60;;;;;;;7.21;99.24;97640.30;102963;1299;25400;-72
2022/11/16 00:16:56;;;;;;;82.40;45.90;;;;;;;7.18;99.60;97638.20;103220;1310;25614;-72
2022/11/16 00:19:24;;;;;;;79.30;45.30;;;;;;;7.17;99.56;97636.73;103017;1289;138350;-72
2022/11/16 00:21:52;;;;;;;84.30;47.50;;;;;;;7.16;99.80;97631.00;103210;1294;22509;-72
2022/11/16 00:24:21;;;;;;;82.60;46.10;;;;;;;7.16;99.74;97633.61;102905;1294;138560;-72
2022/11/16 00:26:49;;;;;;;84.80;47.50;;;;;;;7.17;99.69;97633.39;103253;1288;24378;-72
2022/11/16 00:29:23;;;;;;;82.30;46.10;;;;;;;7.18;99.96;97631.20;102772;1313;138577;-72
2022/11/16 00:31:50;;;;;;;78.20;45.10;;;;;;;7.18;99.98;97625.37;102998;1302;22570;-72
2022/11/16 00:34:20;;;;;;;77.40;42.80;;;;;;;7.20;99.98;97621.92;103007;1297;22605;-72
2022/11/16 00:36:47;;;;;;;73.70;41.90;;;;;;;7.21;99.92;97621.67;102816;1301;138308;-72
2022/11/16 00:39:16;;;;;;;74.80;41.00;;;;;;;7.22;100.00;97621.81;102954;1297;22476;-72
2022/11/16 00:41:46;;;;;;;79.00;43.00;;;;;;;7.25;99.99;97620.60;102781;1281;139066;-72
2022/11/16 00:44:14;;;;;;;76.70;40.90;;;;;;;7.27;100.00;97621.46;103081;1312;23828;-73
2022/11/16 00:46:41;;;;;;;76.10;41.10;;;;;;;7.30;100.00;97625.02;102933;1301;24074;-72
2022/11/16 00:49:09;;;;;;;79.50;43.30;;;;;;;7.31;100.00;97625.76;102918;1289;138081;-72
2022/11/16 00:51:37;;;;;;;74.90;43.60;;;;;;;7.32;100.00;97634.39;102940;1298;24688;-72
2022/11/16 00:54:06;;;;;;;80.80;43.10;;;;;;;7.33;99.99;97631.04;103035;1307;138094;-72
2022/11/16 00:56:39;;;;;;;78.80;43.50;;;;;;;7.33;100.00;97628.07;103169;1298;24444;-72
2022/11/16 00:59:07;;;;;;;76.00;42.30;;;;;;;7.34;100.00;97621.59;102963;1313;25348;-72
2022/11/16 01:01:34;;;;;;;72.20;40.00;;;;;;;7.35;100.00;97616.77;102757;1313;138097;-73
2022/11/16 01:04:01;;;;;;;83.90;43.10;;;;;;;7.36;100.00;97618.19;103022;1310;22505;-73
2022/11/16 01:06:31;;;;;;;75.50;42.20;;;;;;;7.36;100.00;97620.42;102757;1313;138143;-72
2022/11/16 01:09:00;;;;;;;81.10;45.60;;;;;;;7.34;99.94;97619.96;102910;1284;24268;-73
2022/11/16 01:14:14;;;;;;;82.40;45.90;;;;;;;7.29;99.98;97623.17;103008;1288;25297;-72
2022/11/16 01:16:43;;;;;;;;;;;;;;;7.28;99.97;97620.27;102851;1291;36345;-72
2022/11/16 01:19:10;;;;;;;80.30;45.50;;;;;;;7.27;99.99;97621.17;102734;1312;124148;-72
2022/11/16 01:21:37;;;;;;;79.00;44.20;;;;;;;7.25;100.00;97615.34;102773;1306;24238;-72
2022/11/16 01:24:04;;;;;;;79.40;46.10;;;;;;;7.24;99.99;97612.35;102748;1297;138368;-72
2022/11/16 01:26:32;;;;;;;83.70;48.00;;;;;;;7.23;100.00;97609.48;102825;1303;25451;-71
2022/11/16 01:29:02;;;;;;;80.90;48.30;;;;;;;7.23;100.00;97603.35;102843;1288;23555;-72
2022/11/16 01:31:32;;;;;;;85.30;47.30;;;;;;;7.23;100.00;97597.40;102814;1288;138219;-72
2022/11/16 01:34:01;;;;;;;87.40;48.60;;;;;;;7.24;100.00;97598.88;102875;1290;25532;-72
2022/11/16 01:36:29;;;;;;;80.80;45.90;;;;;;;7.25;100.00;97597.11;102705;1289;138065;-72
2022/11/16 01:38:59;;;;;;;83.70;45.60;;;;;;;7.27;100.00;97594.20;102878;1290;23447;-73
2022/11/16 01:41:29;;;;;;;84.40;45.90;;;;;;;7.29;100.00;97587.85;102636;1291;138826;-72
2022/11/16 01:44:31;;;;;;;77.70;42.20;;;;;;;7.29;100.00;97581.95;102785;1313;25215;-72
2022/11/16 01:47:12;;;;;;;82.30;46.00;;;;;;;7.27;100.00;97575.59;102784;1298;22514;-72
2022/11/16 01:49:44;;;;;;;77.50;45.60;;;;;;;7.20;100.00;97567.52;102794;1297;25304;-72
2022/11/16 01:52:15;;;;;;;79.90;46.80;;;;;;;7.21;100.00;97574.39;102850;1304;22505;-71
2022/11/16 01:54:46;;;;;;;84.90;46.10;;;;;;;7.21;100.00;97568.22;102719;1298;138269;-72
2022/11/16 01:57:17;;;;;;;77.30;45.10;;;;;;;7.22;100.00;97566.84;102955;1306;24283;-71
2022/11/16 01:59:57;;;;;;;85.40;46.20;;;;;;;7.23;100.00;97567.02;102797;1288;139367;-72
2022/11/16 02:02:25;;;;;;;82.00;45.60;;;;;;;7.23;100.00;97563.23;102988;1289;25296;-72
2022/11/16 02:04:55;;;;;;;91.80;46.70;;;;;;;7.24;100.00;97560.58;102910;1297;22599;-71
2022/11/16 02:10:54;;;;;;;77.30;43.70;;;;;;;7.26;100.00;97552.21;102824;1298;22484;-72
2022/11/16 02:13:48;;;;;;;80.40;43.10;;;;;;;7.27;100.00;97547.40;102777;1312;138732;-72
2022/11/16 02:16:23;;;;;;;81.30;44.40;;;;;;;7.27;100.00;97539.18;102860;1297;25299;-72
2022/11/16 02:19:33;;;;;;;79.20;43.20;;;;;;;7.28;100.00;97532.92;102830;1289;138275;-72
2022/11/16 02:22:38;;;;;;;81.40;44.40;;;;;;;7.29;100.00;97531.35;102918;1304;24298;-72
2022/11/16 02:25:16;;;;;;;87.00;42.60;;;;;;;7.30;100.00;97537.06;102783;1288;138322;-73
2022/11/16 02:27:46;;;;;;;84.30;45.30;;;;;;;7.31;100.00;97532.75;102865;1284;22648;-73
2022/11/16 02:30:17;;;;;;;85.90;44.20;;;;;;;7.33;100.00;97529.11;102733;1304;138362;-73
2022/11/16 02:32:55;;;;;;;85.60;44.70;;;;;;;7.35;100.00;97526.85;102897;1281;24227;-73
2022/11/16 02:35:42;;;;;;;82.60;40.40;;;;;;;7.37;100.00;97521.02;102770;1289;140009;-73
2022/11/16 02:38:17;;;;;;;76.60;41.50;;;;;;;7.37;100.00;97513.57;102910;1281;25265;-73
2022/11/16 02:40:49;;;;;;;83.90;42.40;;;;;;;7.38;100.00;97512.55;102862;1305;22602;-73
2022/11/16 02:43:31;;;;;;;82.70;42.90;;;;;;;7.40;100.00;97512.19;102851;1312;138075;-73
2022/11/16 02:46:07;;;;;;;77.40;41.30;;;;;;;7.40;100.00;97506.46;102911;1312;25044;-73
2022/11/16 02:48:39;;;;;;;83.60;43.00;;;;;;;7.42;100.00;97500.63;102792;1310;138301;-73
2022/11/16 02:51:07;;;;;;;77.80;39.60;;;;;;;7.45;100.00;97492.85;102881;1313;24481;-73
2022/11/16 02:53:50;;;;;;;72.20;38.90;;;;;;;7.46;100.00;97492.40;102880;1306;138680;-73
2022/11/16 02:56:18;;;;;;;71.10;39.20;;;;;;;7.48;100.00;97492.91;102913;1284;25261;-74
2022/11/16 02:58:46;;;;;;;77.60;40.60;;;;;;;7.46;100.00;97492.19;102900;1288;24327;-74
2022/11/16 03:01:39;;;;;;;74.10;43.20;;;;;;;7.44;100.00;97493.67;102636;1314;138511;-73
2022/11/16 03:04:25;;;;;;;79.80;42.80;;;;;;;7.42;100.00;97490.60;102869;1294;25389;-74
2022/11/16 03:06:57;;;;;;;87.20;45.20;;;;;;;7.41;100.00;97488.20;102756;1312;138310;-74
2022/11/16 03:09:29;;;;;;;76.90;41.60;;;;;;;7.39;100.00;97485.20;102736;1281;22496;-74
2022/11/16 03:11:59;;;;;;;72.80;40.20;;;;;;;7.38;100.00;97488.27;102753;1312;138336;-74
2022/11/16 03:14:37;;;;;;;81.30;44.00;;;;;;;7.33;100.00;97486.62;102872;1312;22602;-74
2022/11/16 03:17:10;;;;;;;86.00;45.20;;;;;;;7.30;100.00;97488.98;102995;1298;25556;-74
2022/11/16 03:20:03;;;;;;;77.50;43.20;;;;;;;7.31;100.00;97487.30;102785;1304;138047;-74
2022/11/16 03:22:46;;;;;;;82.60;45.10;;;;;;;7.30;100.00;97485.72;102999;1294;22477;-74
2022/11/16 03:25:19;;;;;;;78.40;43.60;;;;;;;7.31;100.00;97488.66;102688;1290;138367;-74
2022/11/16 03:28:20;;;;;;;75.70;43.90;;;;;;;7.30;100.00;97488.11;102894;1297;25217;-74
2022/11/16 03:31:13;;;;;;;82.60;44.00;;;;;;;7.30;100.00;97490.16;102943;1305;138198;-72
2022/11/16 03:33:55;;;;;;;77.30;42.90;;;;;;;7.31;100.00;97491.48;102902;1297;23364;-72
2022/11/16 03:36:32;;;;;;;75.00;42.60;;;;;;;7.32;100.00;97486.13;102697;1289;138069;-73
2022/11/16 03:39:06;;;;;;;75.70;42.10;;;;;;;7.34;100.00;97481.34;102781;1306;22625;-72
2022/11/16 03:41:38;;;;;;;76.90;43.20;;;;;;;7.36;100.00;97480.88;102686;1296;138515;-72
2022/11/16 03:44:07;;;;;;;77.30;43.30;;;;;;;7.37;100.00;97476.17;102834;1312;24285;-74
2022/11/16 03:46:36;;;;;;;78.80;44.40;;;;;;;7.39;100.00;97478.05;102839;1304;22473;-74
2022/11/16 03:49:04;;;;;;;74.50;42.90;;;;;;;7.39;100.00;97470.95;102305;1307;138393;-75
2022/11/16 03:51:34;;;;;;;79.50;42.60;;;;;;;7.40;100.00;97468.31;102448;1294;24209;-74
2022/11/16 03:54:01;;;;;;;73.30;40.80;;;;;;;7.40;100.00;97465.13;102297;1288;138388;-74
2022/11/16 03:56:28;;;;;;;75.00;41.60;;;;;;;7.41;100.00;97469.14;102209;1303;24289;-73
2022/11/16 03:58:57;;;;;;;71.10;39.50;;;;;;;7.41;100.00;97470.29;102410;1307;22532;-73
2022/11/16 04:01:24;;;;;;;76.70;41.00;;;;;;;7.41;100.00;97468.00;102189;1316;140290;-74
2022/11/16 04:03:51;;;;;;;71.00;40.10;;;;;;;7.41;100.00;97468.98;102354;1301;22485;-74
2022/11/16 04:25:59;;;;;;;86.50;48.70;;;;;;;7.47;100.00;97446.09;102769;1297;22692;-74
2022/11/16 04:28:30;;;;;;;84.10;47.60;;;;;;;7.47;100.00;97445.83;102837;1277;25273;-74
2022/11/16 04:39:50;;;;;;;86.70;50.60;;;;;;;7.45;100.00;97447.52;102505;1293;22483;-74
2022/11/16 04:42:21;;;;;;;83.00;49.00;;;;;;;7.44;100.00;97449.84;102807;1284;138112;-74
2022/11/16 04:47:49;;;;;;;84.70;48.60;;;;;;;7.43;100.00;97445.60;102882;1312;138246;-74
2022/11/16 04:50:18;;;;;;;82.70;47.40;;;;;;;7.43;100.00;97441.75;102922;1287;24214;-74
2022/11/16 04:52:45;;;;;;;79.60;44.40;;;;;;;7.43;100.00;97442.73;103003;1304;23433;-74
2022/11/16 04:55:13;;;;;;;83.30;47.50;;;;;;;7.44;100.00;97441.48;102873;1288;139453;-74
2022/11/16 04:57:40;;;;;;;79.50;44.90;;;;;;;7.45;100.00;97438.04;103148;1288;22597;-74
2022/11/16 05:00:08;;;;;;;78.90;45.50;;;;;;;7.45;100.00;97441.79;102798;1312;138285;-73
2022/11/16 05:02:36;;;;;;;73.00;43.00;;;;;;;7.46;100.00;97441.36;102923;1294;24995;-73
2022/11/16 05:05:03;;;;;;;74.10;42.30;;;;;;;7.47;100.00;97438.83;103052;1288;22749;-73
2022/11/16 05:07:30;;;;;;;78.80;45.50;;;;;;;7.46;100.00;97429.36;103000;1287;138670;-73
2022/11/16 05:10:05;;;;;;;78.40;43.90;;;;;;;7.49;100.00;97433.11;102836;1290;24305;-74
2022/11/16 05:12:33;;;;;;;80.50;44.20;;;;;;;7.50;100.00;97430.04;102945;1313;138063;-73
2022/11/16 05:15:03;;;;;;;77.60;43.80;;;;;;;7.50;100.00;97431.95;103039;1288;22905;-73
2022/11/16 05:17:33;;;;;;;81.80;45.40;;;;;;;7.50;100.00;97427.82;102837;1312;22502;-73
2022/11/16 05:22:57;;;;;;;83.00;46.90;;;;;;;7.49;100.00;97418.98;102975;1284;23921;-73
2022/11/16 05:25:26;;;;;;;82.00;46.90;;;;;;;7.48;100.00;97419.25;102852;1310;138437;-73
2022/11/16 05:27:53;;;;;;;78.80;45.30;;;;;;;7.49;100.00;97417.52;103025;1298;25337;-73
2022/11/16 05:30:20;;;;;;;79.90;45.60;;;;;;;7.48;100.00;97416.75;102892;1304;138398;-73
2022/11/16 05:32:49;;;;;;;80.50;46.20;;;;;;;7.49;100.00;97418.23;102935;1284;22604;-73
2022/11/16 05:35:16;;;;;;;79.10;45.90;;;;;;;7.50;100.00;97418.39;102924;1304;22483;-73
2022/11/16 05:37:43;;;;;;;83.50;47.00;;;;;;;7.51;100.00;97416.13;102851;1304;138445;-73
2022/11/16 05:40:11;;;;;;;80.70;46.40;;;;;;;7.52;100.00;97419.89;102620;1294;24237;-73
2022/11/16 05:42:46;;;;;;;80.90;47.90;;;;;;;7.53;100.00;97419.14;102826;1286;138514;-73
2022/11/16 05:45:13;;;;;;;77.60;44.80;;;;;;;7.53;100.00;97419.73;103088;1287;24221;-73
2022/11/16 05:47:40;;;;;;;78.70;46.00;;;;;;;7.54;100.00;97416.92;102905;1288;138774;-73
2022/11/16 05:50:08;;;;;;;81.30;45.60;;;;;;;7.54;100.00;97414.77;102876;1294;23439;-73
2022/11/16 05:52:38;;;;;;;84.30;47.00;;;;;;;7.55;100.00;97417.48;102932;1297;22520;-73
2022/11/16 05:55:08;;;;;;;;;;;;;;;7.56;100.00;97412.77;103226;1294;138267;-73
2022/11/16 05:57:40;;;;;;;83.10;47.10;;;;;;;7.55;100.00;97411.52;102978;1295;28209;-73
2022/11/16 06:00:09;;;;;;;86.50;47.70;;;;;;;7.54;100.00;97406.30;102758;1291;138470;-73
2022/11/16 06:02:45;;;;;;;81.20;47.00;;;;;;;7.52;100.00;97404.21;103311;1294;22489;-73
2022/11/16 06:05:19;;;;;;;85.20;49.10;;;;;;;7.52;100.00;97402.33;103104;1284;25463;-73
2022/11/16 06:07:47;;;;;;;89.60;50.90;;;;;;;7.50;100.00;97400.95;102851;1291;138250;-73
2022/11/16 06:10:14;;;;;;;88.10;51.10;;;;;;;7.49;100.00;97398.93;103256;1294;25216;-72
2022/11/16 06:12:46;;;;;;;92.20;51.30;;;;;;;7.49;100.00;97397.27;103061;1298;138406;-72
2022/11/16 06:15:14;;;;;;;86.60;51.20;;;;;;;7.49;100.00;97397.09;103178;1286;22462;-72
2022/11/16 06:17:41;;;;;;;83.10;49.10;;;;;;;7.50;100.00;97393.74;103014;1304;138562;-73
2022/11/16 06:20:10;;;;;;;87.40;50.80;;;;;;;7.51;100.00;97397.17;102977;1290;22501;-72
2022/11/16 06:22:37;;;;;;;86.90;49.60;;;;;;;7.52;100.00;97397.08;103077;1312;22698;-72
2022/11/16 06:25:09;;;;;;;89.70;51.20;;;;;;;7.54;100.00;97398.67;102801;1298;138537;-72
2022/11/16 06:27:39;;;;;;;92.40;53.00;;;;;;;7.54;100.00;97397.54;103212;1298;22496;-72
2022/11/16 06:30:07;;;;;;;90.60;50.30;;;;;;;7.53;100.00;97395.73;102894;1304;138487;-72
2022/11/16 06:32:34;;;;;;;90.90;52.80;;;;;;;7.53;100.00;97392.81;103034;1290;22604;-72
2022/11/16 06:35:02;;;;;;;91.90;52.50;;;;;;;7.54;100.00;97391.30;102931;1291;22524;-72
2022/11/16 06:37:29;;;;;;;89.30;50.90;;;;;;;7.53;100.00;97393.83;102954;1313;139065;-72
2022/11/16 06:39:57;;;;;;;91.80;54.20;;;;;;;7.53;100.00;97392.10;103073;1305;25327;-72
2022/11/16 06:42:24;;;;;;;90.00;51.10;;;;;;;7.52;100.00;97386.50;103013;1312;140158;-72
2022/11/16 06:44:52;;;;;;;92.20;53.50;;;;;;;7.52;100.00;97385.74;102624;1312;22605;-72
2022/11/16 06:47:24;;;;;;;101.40;54.60;;;;;;;7.52;100.00;97385.42;103405;1288;22957;-72
2022/11/16 06:49:52;;;;;;;95.60;54.10;;;;;;;7.52;100.00;97385.27;103015;1289;138426;-72
2022/11/16 06:52:22;;;;;;;95.90;53.40;;;;;;;7.53;100.00;97381.52;103142;1298;22576;-72
2022/11/16 06:54:51;;;;;;;99.10;52.00;;;;;;;7.54;100.00;97378.99;102902;1287;138278;-72
2022/11/16 06:57:18;;;;;;;97.70;53.60;;;;;;;7.54;100.00;97375.27;103029;1312;22575;-72
2022/11/16 06:59:46;;;;;;;95.40;52.80;;;;;;;7.55;100.00;97376.46;103060;1304;138490;-73
2022/11/16 07:02:16;;;;;;;100.60;51.80;;;;;;;7.54;100.00;97375.00;103171;1307;23314;-72
2022/11/16 07:04:44;;;;;;;95.20;52.10;;;;;;;7.54;100.00;97373.09;102977;1290;25419;-72
2022/11/16 07:07:11;;;;;;;100.40;53.30;;;;;;;7.57;100.00;97374.66;103092;1288;139471;-72
2022/11/16 07:09:38;;;;;;;98.30;53.90;;;;;;;7.57;100.00;97371.56;102950;1312;22539;-72
2022/11/16 07:12:05;;;;;;;92.40;50.30;;;;;;;7.56;100.00;97371.38;102859;1290;141011;-72
2022/11/16 07:14:36;;;;;;;93.70;51.10;;;;;;;7.53;100.00;97368.80;103121;1294;24998;-75
2022/11/16 07:17:03;;;;;;;94.50;50.40;;;;;;;7.51;100.00;97366.29;102678;1290;23889;-72
2022/11/16 07:19:30;;;;;;;85.50;49.20;;;;;;;7.49;100.00;97359.05;102932;1284;139723;-72
2022/11/16 07:21:59;;;;;;;78.40;45.00;;;;;;;7.46;100.00;97358.10;103023;1312;22544;-72
2022/11/16 07:24:26;;;;;;;84.00;47.80;;;;;;;7.47;100.00;97354.70;103186;1298;138359;-72
2022/11/16 07:26:53;;;;;;;80.20;44.20;;;;;;;7.48;100.00;97359.47;103121;1289;24280;-73
2022/11/16 07:29:27;;;;;;;83.10;47.70;;;;;;;7.43;100.00;97362.17;103107;1312;22482;-73
2022/11/16 07:32:13;;;;;;;88.40;48.70;;;;;;;7.38;100.00;97357.35;103207;1312;22621;-73
2022/11/16 07:34:59;;;;;;;84.80;47.10;;;;;;;7.36;100.00;97357.21;103276;1301;22572;-73
2022/11/16 07:37:26;;;;;;;82.40;45.50;;;;;;;7.33;100.00;97353.00;102899;1298;139609;-73
2022/11/16 07:39:53;;;;;;;81.10;44.90;;;;;;;7.31;100.00;97349.19;102977;1292;24473;-73
2022/11/16 07:42:21;;;;;;;80.20;42.40;;;;;;;7.28;100.00;97354.79;103283;1304;139139;-73
2022/11/16 07:45:00;;;;;;;82.20;41.60;;;;;;;7.26;100.00;97351.56;102824;1305;22705;-73
2022/11/16 07:47:27;;;;;;;82.60;44.30;;;;;;;7.22;100.00;97358.28;102994;1294;23927;-73
2022/11/16 07:49:55;;;;;;;82.50;41.90;;;;;;;7.18;100.00;97357.36;102966;1312;139729;-73
2022/11/16 07:52:25;;;;;;;72.00;39.60;;;;;;;7.15;100.00;97361.06;103201;1309;37564;-73
2022/11/16 07:54:58;;;;;;;75.00;39.90;;;;;;;7.12;100.00;97365.94;102826;1296;138512;-73
2022/11/16 07:57:27;;;;;;;75.30;41.00;;;;;;;7.11;100.00;97365.43;102949;1310;23627;-73
2022/11/16 07:59:56;;;;;;;77.20;40.10;;;;;;;7.08;100.00;97371.94;102966;1303;138500;-73
2022/11/16 08:02:23;;;;;;;77.70;40.60;;;;;;;7.06;100.00;97371.98;103576;1306;24320;-73
2022/11/16 08:04:50;;;;;;;80.70;42.10;;;;;;;7.05;100.00;97374.78;103132;1291;22518;-73
2022/11/16 08:07:19;;;;;;;75.90;39.00;;;;;;;7.03;100.00;97380.92;103045;1313;140606;-73
2022/11/16 08:09:51;;;;;;;64.10;33.20;;;;;;;6.99;100.00;97382.48;102955;1312;22485;-73
2022/11/16 08:12:18;;;;;;;51.40;26.00;;;;;;;6.95;100.00;97381.67;103027;1297;138890;-74
2022/11/16 08:14:50;;;;;;;42.20;23.00;;;;;;;6.91;99.91;97380.23;102855;1312;24427;-73
2022/11/16 08:17:22;;;;;;;43.20;24.80;;;;;;;6.85;99.80;97380.22;102847;1296;24272;-73
2022/11/16 08:19:49;;;;;;;42.70;23.00;;;;;;;6.79;99.50;97378.30;102855;1314;138173;-73
2022/11/16 08:22:17;;;;;;;39.50;21.90;;;;;;;6.73;99.33;97372.80;102777;1291;27729;-73
2022/11/16 08:24:44;;;;;;;40.90;19.80;;;;;;;6.64;99.16;97364.64;102164;1307;1310176;-74
2022/11/16 08:27:14;;;;;;;35.00;20.60;;;;;;;6.60;98.66;97363.83;103305;1284;24505;-73
2022/11/16 08:29:42;;;;;;;37.50;19.80;;;;;;;6.55;98.65;97361.64;103064;1294;22514;-76
2022/11/16 08:32:10;;;;;;;42.70;21.70;;;;;;;6.50;98.93;97363.11;103064;1312;138203;-74
2022/11/16 08:34:37;;;;;;;32.40;17.90;;;;;;;6.47;99.19;97368.11;102986;1288;25665;-74
2022/11/16 08:37:04;;;;;;;35.70;17.90;;;;;;;6.43;99.37;97368.84;102619;1302;139284;-74
2022/11/16 08:39:44;;;;;;;33.60;18.10;;;;;;;6.39;99.38;97370.58;102774;1302;25402;-74
2022/11/16 08:42:13;;;;;;;;;;;;;;;6.36;99.06;97370.62;103000;1308;158929;-74
2022/11/16 08:44:44;;;;;;;29.70;17.30;;;;;;;6.32;99.34;97375.21;102721;1312;25259;-74
2022/11/16 08:47:13;;;;;;;;;;;;;;;6.31;99.81;97375.73;102902;1289;22460;-74
2022/11/16 08:49:53;;;;;;;32.20;18.00;;;;;;;6.28;99.91;97372.50;102888;1291;125416;-73
2022/11/16 08:52:23;;;;;;;30.90;17.40;;;;;;;6.26;99.86;97369.72;103017;1288;24290;-74
2022/11/16 08:54:51;;;;;;;30.40;18.80;;;;;;;6.25;99.95;97371.52;102827;1312;138279;-74
2022/11/16 08:57:18;;;;;;;33.80;17.70;;;;;;;6.25;99.84;97374.95;103014;1297;22547;-74
2022/11/16 08:59:47;;;;;;;33.00;18.20;;;;;;;6.26;99.80;97378.66;103035;1297;23895;-74
2022/11/16 09:02:15;;;;;;;27.60;15.20;;;;;;;6.24;99.83;97378.92;103041;1291;25336;-73
2022/11/16 09:04:43;;;;;;;28.30;15.20;;;;;;;6.21;99.70;97379.52;103141;1283;22483;-74
2022/11/16 09:07:13;;;;;;;24.20;14.30;;;;;;;6.20;99.57;97382.79;103100;1286;138083;-74
2022/11/16 09:09:40;;;;;;;23.70;14.70;;;;;;;6.20;99.88;97376.36;103161;1290;24273;-74
2022/11/16 09:12:07;;;;;;;25.80;14.20;;;;;;;6.22;99.95;97374.77;103007;1298;140421;-74
2022/11/16 09:14:34;;;;;;;22.40;13.30;;;;;;;6.26;100.00;97367.85;103292;1291;22602;-73
2022/11/16 09:17:02;;;;;;;22.00;13.40;;;;;;;6.29;100.00;97363.00;102918;1295;25226;-74
2022/11/16 09:19:31;;;;;;;25.90;14.50;;;;;;;6.34;99.98;97358.11;102973;1307;138673;-73
2022/11/16 09:22:02;;;;;;;25.00;14.60;;;;;;;6.35;99.92;97353.92;103048;1291;22497;-73
2022/11/16 09:24:29;;;;;;;25.40;15.20;;;;;;;6.37;99.82;97352.86;102863;1304;139900;-73
2022/11/16 09:27:00;;;;;;;23.30;13.90;;;;;;;6.39;99.95;97353.15;103031;1312;22748;-73
2022/11/16 09:29:27;;;;;;;21.50;12.90;;;;;;;6.39;99.94;97348.49;103231;1313;22562;-73
2022/11/16 09:31:54;;;;;;;17.50;11.60;;;;;;;6.38;99.96;97346.21;103109;1281;138124;-74
2022/11/16 09:34:21;;;;;;;17.40;10.10;;;;;;;6.37;99.77;97342.63;103088;1312;22499;-73
2022/11/16 09:36:48;;;;;;;18.70;11.10;;;;;;;6.36;99.57;97344.73;103374;1310;138246;-74
2022/11/16 09:39:16;;;;;;;19.60;11.50;;;;;;;6.36;99.43;97340.40;102888;1289;22678;-73
2022/11/16 09:42:10;;;;;;;18.80;10.50;;;;;;;6.37;99.30;97343.92;103030;1305;22972;-74
2022/11/16 09:44:57;;;;;;;15.30;9.90;;;;;;;6.35;99.13;97346.48;102967;1312;24319;-73
2022/11/16 09:47:55;;;;;;;16.10;10.30;;;;;;;6.35;99.40;97342.10;102926;1303;22489;-74
2022/11/16 09:50:22;;;;;;;17.70;10.60;;;;;;;6.35;99.51;97337.57;103172;1290;138633;-74
2022/11/16 09:52:54;;;;;;;14.00;9.80;;;;;;;6.36;99.48;97332.18;103093;1304;22630;-74
2022/11/16 09:55:45;;;;;;;14.50;9.80;;;;;;;6.37;99.69;97324.84;102878;1311;138173;-74
2022/11/16 09:58:19;;;;;;;14.30;9.90;;;;;;;6.39;99.67;97320.87;103141;1286;22551;-74
2022/11/16 10:00:55;;;;;;;15.50;9.70;;;;;;;6.40;99.32;97316.02;102920;1312;137966;-74
2022/11/16 10:03:24;;;;;;;14.40;9.30;;;;;;;6.41;99.60;97309.16;102982;1307;22629;-74
2022/11/16 10:06:05;;;;;;;15.30;9.70;;;;;;;6.44;99.41;97306.23;102955;1291;24327;-74
2022/11/16 10:08:46;;;;;;;13.40;9.50;;;;;;;6.45;99.25;97303.16;103134;1307;22609;-74
2022/11/16 10:11:35;;;;;;;15.80;9.50;;;;;;;6.47;99.57;97300.13;103377;1277;24202;-74
2022/11/16 10:14:17;;;;;;;14.10;10.00;;;;;;;6.47;99.14;97298.66;103205;1291;139925;-74
2022/11/16 10:17:15;;;;;;;14.90;10.10;;;;;;;6.49;99.15;97289.92;103089;1291;25324;-74
2022/11/16 10:20:00;;;;;;;16.50;11.00;;;;;;;6.51;99.22;97288.23;102945;1312;138149;-74
2022/11/16 10:22:35;;;;;;;15.10;10.10;;;;;;;6.52;99.36;97283.36;102946;1289;23215;-74
2022/11/16 10:25:43;;;;;;;14.00;9.10;;;;;;;6.53;99.61;97282.41;102936;1286;138365;-74
2022/11/16 10:28:45;;;;;;;15.20;10.20;;;;;;;6.55;99.49;97281.31;102958;1312;22692;-75
2022/11/16 10:31:32;;;;;;;13.70;9.00;;;;;;;6.54;98.90;97279.83;103006;1290;138222;-74
2022/11/16 10:34:02;;;;;;;12.90;8.70;;;;;;;6.53;98.65;97278.84;103150;1281;23047;-75
2022/11/16 10:36:31;;;;;;;13.90;9.60;;;;;;;6.51;98.65;97274.64;103310;1297;138212;-74
2022/11/16 10:38:59;;;;;;;12.50;9.60;;;;;;;6.48;98.69;97278.88;103067;1300;22536;-74
2022/11/16 10:41:41;;;;;;;14.00;9.50;;;;;;;6.46;98.79;97275.01;103061;1291;25370;-74
2022/11/16 10:44:26;;;;;;;11.60;8.20;;;;;;;6.47;98.87;97270.95;102890;1312;138785;-74
2022/11/16 10:47:20;;;;;;;11.10;7.90;;;;;;;6.45;99.03;97274.12;103195;1297;24461;-73
2022/11/16 10:49:59;;;;;;;12.80;8.40;;;;;;;6.44;98.87;97274.43;103133;1312;138070;-74
2022/11/16 10:52:28;;;;;;;12.00;8.50;;;;;;;6.43;98.69;97274.05;103208;1297;25339;-74
2022/11/16 10:54:57;;;;;;;12.40;8.90;;;;;;;6.42;98.86;97273.86;103000;1310;139956;-74
2022/11/16 10:58:13;;;;;;;12.70;9.00;;;;;;;6.42;98.92;97269.86;103145;1288;25260;-74
2022/11/16 11:00:48;;;;;;;13.20;9.30;;;;;;;6.42;98.76;97270.40;102778;1313;138081;-74
2022/11/16 11:03:36;;;;;;;13.30;9.30;;;;;;;6.39;98.49;97271.54;103220;1290;23410;-73
2022/11/16 11:06:10;;;;;;;13.80;10.00;;;;;;;6.35;98.52;97273.39;102960;1300;24243;-74
2022/11/16 11:08:37;;;;;;;15.50;10.00;;;;;;;6.31;98.25;97267.15;102910;1298;22464;-74
2022/11/16 11:14:09;;;;;;;13.40;9.40;;;;;;;6.26;98.64;97268.53;103308;1295;142092;-74
2022/11/16 11:16:41;;;;;;;15.50;9.90;;;;;;;6.24;98.63;97269.92;103377;1289;22494;-74
2022/11/16 11:19:26;;;;;;;14.80;9.80;;;;;;;6.22;98.83;97269.17;103266;1289;138381;-74
2022/11/16 11:22:14;;;;;;;12.70;9.40;;;;;;;6.22;99.19;97270.58;103091;1286;22477;-74
2022/11/16 11:24:47;;;;;;;13.90;8.90;;;;;;;6.23;99.29;97268.72;102827;1293;139487;-74
2022/11/16 11:27:22;;;;;;;12.40;8.90;;;;;;;6.24;98.99;97268.12;103166;1313;22631;-73
2022/11/16 11:29:54;;;;;;;11.60;8.20;;;;;;;6.24;99.19;97264.84;103196;1296;24230;-74
2022/11/16 11:32:29;;;;;;;10.80;8.30;;;;;;;6.24;98.85;97266.41;103094;1313;138499;-73
2022/11/16 11:35:05;;;;;;;11.60;8.10;;;;;;;6.24;98.94;97262.50;103105;1287;24116;-73
2022/11/16 11:37:37;;;;;;;12.80;9.60;;;;;;;6.23;99.07;97262.45;103235;1313;138008;-73
2022/11/16 11:40:19;;;;;;;12.00;8.70;;;;;;;6.24;99.38;97263.10;103418;1287;24259;-73
2022/11/16 11:43:00;;;;;;;11.20;7.60;;;;;;;6.24;99.06;97261.15;103029;1312;138464;-73
2022/11/16 11:45:37;;;;;;;13.10;8.50;;;;;;;6.23;99.04;97262.08;103213;1299;25345;-73
2022/11/16 11:48:26;;;;;;;12.80;8.30;;;;;;;6.22;99.12;97260.27;103179;1287;22486;-73
2022/11/16 11:51:09;;;;;;;9.60;7.70;;;;;;;6.22;99.11;97261.39;102972;1303;23276;-73
2022/11/16 11:53:45;;;;;;;9.10;7.70;;;;;;;6.22;99.25;97259.44;103158;1290;22487;-73
2022/11/16 11:56:13;;;;;;;10.40;7.50;;;;;;;6.21;99.17;97258.18;102961;1291;139756;-73
2022/11/16 11:58:42;;;;;;;11.20;8.10;;;;;;;6.22;99.43;97257.27;103045;1283;22562;-73
2022/11/16 12:01:29;;;;;;;9.80;7.40;;;;;;;6.24;99.46;97256.63;102854;1309;138117;-73
2022/11/16 12:04:21;;;;;;;11.40;7.90;;;;;;;6.25;99.54;97252.23;102703;1313;24392;-72
2022/11/16 12:06:53;;;;;;;8.60;6.90;;;;;;;6.26;99.72;97250.27;102774;1299;138125;-72
2022/11/16 12:09:30;;;;;;;7.90;6.00;;;;;;;6.25;99.37;97250.79;102921;1308;24296;-72
2022/11/16 12:12:10;;;;;;;8.10;6.30;;;;;;;6.24;99.44;97250.35;103087;1296;23196;-72
2022/11/16 12:14:55;;;;;;;;;;;;;;;6.23;99.36;97246.27;103017;1289;139434;-72
2022/11/16 12:17:48;;;;;;;6.80;5.10;;;;;;;6.21;99.41;97244.98;102968;1294;25378;-72
2022/11/16 12:20:32;;;;;;;8.60;5.70;;;;;;;6.17;99.04;97240.67;102789;1313;138366;-72
2022/11/16 12:23:22;;;;;;;8.00;5.50;;;;;;;6.16;99.22;97240.59;102841;1314;22491;-72